Time;durP1;ratioP1;P1;durP2;ratioP2;P2;SDS_P1;SDS_P2;PMS_P1;PMS_P2;Temp;Humidity;BMP_temperature;BMP_pressure;BME280_temperature;BME280_humidity;BME280_pressure;Samples;Min_cycle;Max_cycle;Signal;HPM_P1;HPM_P2
2023/12/20 00:01:29;;;;;;;1.02;0.10;;;17.60;54.50;;;;;;5090634;28;20032;-66
2023/12/20 00:03:54;;;;;;;0.90;0.40;;;17.60;54.50;;;;;;5091880;28;20036;-66
2023/12/20 00:06:20;;;;;;;0.90;0.10;;;17.50;54.40;;;;;;5090414;28;20044;-67
2023/12/20 00:08:46;;;;;;;1.80;0.25;;;17.50;54.40;;;;;;5092373;28;20040;-66
2023/12/20 00:11:11;;;;;;;0.40;0.10;;;17.50;54.40;;;;;;5090819;28;20407;-66
2023/12/20 00:13:40;;;;;;;0.65;0.15;;;17.50;54.40;;;;;;5091467;28;20036;-67
2023/12/20 00:16:06;;;;;;;0.70;0.20;;;17.50;54.40;;;;;;5090056;28;20120;-66
2023/12/20 00:18:31;;;;;;;1.00;0.10;;;17.50;54.40;;;;;;5090618;28;20187;-66
2023/12/20 00:21:00;;;;;;;1.65;0.20;;;17.50;54.50;;;;;;5091373;28;20068;-66
2023/12/20 00:23:25;;;;;;;1.58;0.20;;;17.50;54.50;;;;;;5089895;28;20055;-66
2023/12/20 00:25:51;;;;;;;0.73;0.10;;;17.50;54.40;;;;;;5089872;28;20054;-66
2023/12/20 00:28:17;;;;;;;0.22;0.10;;;17.50;54.50;;;;;;5090157;28;20044;-66
2023/12/20 00:30:43;;;;;;;0.82;0.10;;;17.50;54.40;;;;;;5089807;28;20078;-66
2023/12/20 00:33:08;;;;;;;1.05;0.10;;;17.50;54.50;;;;;;5091169;28;20043;-66
2023/12/20 00:35:34;;;;;;;1.52;0.20;;;17.50;54.50;;;;;;5091146;28;20040;-66
2023/12/20 00:38:00;;;;;;;1.33;0.20;;;17.40;54.40;;;;;;5089724;28;20040;-66
2023/12/20 00:40:25;;;;;;;0.63;0.10;;;17.50;54.50;;;;;;5073428;28;20028;-66
2023/12/20 00:42:51;;;;;;;0.55;0.10;;;17.40;54.40;;;;;;5090289;28;20502;-67
2023/12/20 00:45:17;;;;;;;0.73;0.10;;;17.40;54.40;;;;;;5098124;28;20036;-66
2023/12/20 00:47:42;;;;;;;1.35;0.10;;;17.40;54.40;;;;;;5111772;28;20069;-66
2023/12/20 00:50:09;;;;;;;0.98;0.10;;;17.40;54.40;;;;;;5111756;28;20171;-66
2023/12/20 00:52:34;;;;;;;1.27;0.13;;;17.40;54.40;;;;;;5110142;28;20066;-66
2023/12/20 00:55:00;;;;;;;1.00;0.10;;;17.40;54.40;;;;;;5110072;28;20412;-67
2023/12/20 00:57:26;;;;;;;1.10;0.10;;;17.40;54.40;;;;;;5110234;28;20043;-66
2023/12/20 00:59:51;;;;;;;1.08;0.10;;;17.40;54.40;;;;;;5110141;28;20047;-66
2023/12/20 01:02:17;;;;;;;1.10;0.22;;;17.30;54.40;;;;;;5115429;28;20069;-66
2023/12/20 01:04:43;;;;;;;0.28;0.10;;;17.30;54.40;;;;;;5114315;28;20043;-66
2023/12/20 01:07:11;;;;;;;0.98;0.20;;;17.30;54.50;;;;;;5113655;28;20040;-66
2023/12/20 01:09:37;;;;;;;1.13;0.10;;;17.30;54.50;;;;;;5114925;28;20036;-67
2023/12/20 01:12:02;;;;;;;0.70;0.20;;;17.30;54.50;;;;;;5114784;28;20554;-66
2023/12/20 01:14:28;;;;;;;1.55;0.10;;;17.30;54.60;;;;;;5113353;28;20042;-66
2023/12/20 01:16:54;;;;;;;1.00;0.30;;;17.20;54.70;;;;;;5113463;28;20039;-66
2023/12/20 01:19:19;;;;;;;0.70;0.10;;;17.20;54.80;;;;;;5113339;28;20042;-66
2023/12/20 01:21:45;;;;;;;0.70;0.10;;;17.20;54.90;;;;;;5113361;28;20031;-66
2023/12/20 01:24:10;;;;;;;0.32;0.10;;;17.10;54.90;;;;;;5113245;28;20043;-66
2023/12/20 01:26:39;;;;;;;1.60;0.20;;;17.10;55.10;;;;;;5114539;28;20185;-66
2023/12/20 01:29:04;;;;;;;0.77;0.10;;;17.00;55.10;;;;;;5114312;28;20100;-66
2023/12/20 01:31:30;;;;;;;1.17;0.17;;;17.00;55.10;;;;;;5113120;28;20035;-66
2023/12/20 01:33:56;;;;;;;1.08;0.10;;;17.00;55.20;;;;;;5113017;28;20168;-66
2023/12/20 01:36:21;;;;;;;0.80;0.10;;;17.00;55.30;;;;;;5114467;28;20065;-66
2023/12/20 01:38:47;;;;;;;1.58;0.10;;;16.90;55.30;;;;;;5112987;28;20043;-66
2023/12/20 01:41:12;;;;;;;1.70;0.30;;;16.90;55.40;;;;;;5114275;28;20031;-66
2023/12/20 01:43:38;;;;;;;0.60;0.10;;;16.90;55.30;;;;;;5114436;28;20047;-66
2023/12/20 01:46:05;;;;;;;1.00;0.20;;;17.00;55.50;;;;;;5100184;28;20052;-66
2023/12/20 01:48:32;;;;;;;1.45;0.10;;;16.90;55.40;;;;;;5092529;28;20487;-66
2023/12/20 01:51:00;;;;;;;1.70;0.20;;;16.90;55.50;;;;;;5092208;28;20487;-66
2023/12/20 01:53:27;;;;;;;1.90;0.25;;;16.90;55.50;;;;;;5080693;28;20049;-67
2023/12/20 01:55:55;;;;;;;1.40;0.20;;;16.80;55.50;;;;;;5073381;28;20066;-66
2023/12/20 01:58:22;;;;;;;0.65;0.20;;;16.80;55.50;;;;;;5055490;28;20124;-67
2023/12/20 02:00:48;;;;;;;1.02;0.10;;;16.80;55.60;;;;;;5055444;28;20060;-66
2023/12/20 02:03:14;;;;;;;1.38;0.17;;;16.80;55.60;;;;;;5055679;28;20151;-66
2023/12/20 02:05:40;;;;;;;1.08;0.10;;;16.80;55.50;;;;;;5055408;28;20032;-66
2023/12/20 02:08:07;;;;;;;1.00;0.20;;;16.80;55.60;;;;;;5054978;28;20547;-66
2023/12/20 02:10:32;;;;;;;1.02;0.10;;;16.80;55.60;;;;;;5055265;28;20059;-66
2023/12/20 02:12:58;;;;;;;1.15;0.20;;;16.80;55.60;;;;;;5054904;28;20033;-66
2023/12/20 02:15:27;;;;;;;1.15;0.20;;;16.80;55.60;;;;;;5055066;28;20041;-67
2023/12/20 02:17:53;;;;;;;2.28;0.10;;;16.70;55.60;;;;;;5055445;28;20033;-66
2023/12/20 02:20:19;;;;;;;1.60;0.60;;;16.70;55.60;;;;;;5055429;28;20078;-66
2023/12/20 02:22:45;;;;;;;0.82;0.15;;;16.70;55.60;;;;;;5073220;28;20049;-66
2023/12/20 02:25:10;;;;;;;1.05;0.10;;;16.70;55.70;;;;;;5073395;28;20080;-66
2023/12/20 02:27:36;;;;;;;0.93;0.10;;;16.70;55.50;;;;;;5054867;28;20559;-66
2023/12/20 02:30:03;;;;;;;0.80;0.30;;;16.70;55.50;;;;;;5072797;28;20111;-66
2023/12/20 02:32:29;;;;;;;1.10;0.10;;;16.70;55.50;;;;;;5054694;28;20049;-66
2023/12/20 02:34:55;;;;;;;0.70;0.10;;;16.70;55.60;;;;;;5054764;28;20045;-66
2023/12/20 02:37:21;;;;;;;1.55;0.10;;;16.80;55.70;;;;;;5054948;28;20044;-67
2023/12/20 02:39:46;;;;;;;1.13;0.30;;;16.70;55.60;;;;;;5054685;28;20111;-66
2023/12/20 02:42:12;;;;;;;1.02;0.20;;;16.60;55.50;;;;;;5054394;28;20140;-66
2023/12/20 02:44:38;;;;;;;0.52;0.10;;;16.60;55.50;;;;;;5055766;28;20070;-66
2023/12/20 02:47:04;;;;;;;1.10;0.10;;;16.60;55.60;;;;;;5074348;28;20387;-66
2023/12/20 02:49:32;;;;;;;0.40;0.10;;;16.60;55.60;;;;;;5074418;28;20097;-67
2023/12/20 02:51:58;;;;;;;1.48;0.10;;;16.60;55.60;;;;;;5092680;28;20040;-65
2023/12/20 02:54:24;;;;;;;1.67;0.28;;;16.60;55.60;;;;;;5074623;28;20125;-66
2023/12/20 02:56:49;;;;;;;1.58;0.20;;;16.60;55.50;;;;;;5092741;28;20036;-66
2023/12/20 02:59:15;;;;;;;2.13;0.30;;;16.60;55.60;;;;;;5074533;28;20036;-66
2023/12/20 03:01:45;;;;;;;2.03;0.20;;;16.60;55.60;;;;;;5092726;28;20040;-66
2023/12/20 03:04:12;;;;;;;0.82;0.20;;;16.60;55.60;;;;;;5074656;28;20097;-67
2023/12/20 03:06:38;;;;;;;0.95;0.10;;;16.60;55.60;;;;;;5092467;28;20044;-66
2023/12/20 03:09:04;;;;;;;1.27;0.10;;;16.50;55.60;;;;;;5092171;28;20044;-66
2023/12/20 03:11:30;;;;;;;1.27;0.17;;;16.50;55.70;;;;;;5074252;28;20051;-66
2023/12/20 03:13:56;;;;;;;0.80;0.20;;;16.60;55.70;;;;;;5092375;28;20052;-66
2023/12/20 03:16:22;;;;;;;2.15;0.30;;;16.60;55.70;;;;;;5073988;28;20040;-66
2023/12/20 03:18:47;;;;;;;1.30;0.35;;;16.60;55.70;;;;;;5091992;28;20051;-66
2023/12/20 03:21:13;;;;;;;1.10;0.20;;;16.50;55.70;;;;;;5092221;28;20035;-66
2023/12/20 03:23:41;;;;;;;1.42;0.20;;;16.50;55.70;;;;;;5073432;28;20127;-66
2023/12/20 03:26:08;;;;;;;3.03;0.45;;;16.50;55.60;;;;;;5073652;28;20130;-66
2023/12/20 03:28:34;;;;;;;1.73;0.50;;;16.50;55.70;;;;;;5073645;28;20051;-66
2023/12/20 03:31:00;;;;;;;0.98;0.20;;;16.50;55.70;;;;;;5091608;28;20058;-66
2023/12/20 03:33:25;;;;;;;0.95;0.10;;;16.50;55.70;;;;;;5092130;28;20032;-66
2023/12/20 03:35:51;;;;;;;2.53;0.30;;;16.50;55.70;;;;;;5074338;28;20498;-66
2023/12/20 03:38:16;;;;;;;1.25;0.20;;;16.40;55.60;;;;;;5073726;28;20036;-66
2023/12/20 03:40:42;;;;;;;1.30;0.20;;;16.50;55.70;;;;;;5073818;28;20028;-66
2023/12/20 03:43:08;;;;;;;2.05;0.40;;;16.50;55.70;;;;;;5091897;28;20043;-66
2023/12/20 03:45:33;;;;;;;2.22;0.20;;;16.50;55.70;;;;;;5064432;28;20044;-66
2023/12/20 03:47:59;;;;;;;1.08;0.20;;;16.40;55.70;;;;;;5053821;28;20037;-66
2023/12/20 03:50:25;;;;;;;1.25;0.20;;;16.50;55.70;;;;;;5053314;28;20530;-66
2023/12/20 03:52:51;;;;;;;1.52;0.30;;;16.50;55.80;;;;;;5065433;28;20177;-66
2023/12/20 03:55:16;;;;;;;1.27;0.10;;;16.40;55.80;;;;;;5091434;28;20122;-68
2023/12/20 03:57:42;;;;;;;1.65;0.30;;;16.50;55.80;;;;;;5073211;28;20040;-65
2023/12/20 04:00:10;;;;;;;0.93;0.20;;;16.40;55.70;;;;;;5089873;28;20065;-66
2023/12/20 04:02:37;;;;;;;1.42;0.20;;;16.40;55.70;;;;;;5090239;28;20047;-66
2023/12/20 04:05:02;;;;;;;1.30;0.20;;;16.40;55.70;;;;;;5090432;28;20044;-66
2023/12/20 04:07:29;;;;;;;1.70;0.32;;;16.40;55.70;;;;;;5090275;28;20042;-66
2023/12/20 04:09:57;;;;;;;1.75;0.20;;;16.40;55.60;;;;;;5090513;28;20122;-66
2023/12/20 04:12:27;;;;;;;1.63;0.30;;;16.40;55.70;;;;;;5090663;28;20093;-66
2023/12/20 04:14:55;;;;;;;1.33;0.20;;;16.40;55.70;;;;;;5090680;28;20080;-66
2023/12/20 04:17:22;;;;;;;1.83;0.30;;;16.40;55.70;;;;;;5092000;28;20032;-66
2023/12/20 04:19:49;;;;;;;2.03;0.20;;;16.40;55.70;;;;;;5090381;28;20058;-66
2023/12/20 04:22:14;;;;;;;1.25;0.20;;;16.40;55.70;;;;;;5091796;28;20402;-66
2023/12/20 04:24:42;;;;;;;0.85;0.15;;;16.40;55.60;;;;;;5090842;28;20044;-66
2023/12/20 04:27:10;;;;;;;2.72;0.28;;;16.40;55.70;;;;;;5090578;28;20048;-66
2023/12/20 04:29:36;;;;;;;2.03;0.30;;;16.40;55.70;;;;;;5090256;28;20127;-66
2023/12/20 04:32:01;;;;;;;2.55;0.30;;;16.40;55.70;;;;;;5091637;28;20123;-66
2023/12/20 04:34:27;;;;;;;2.03;0.30;;;16.40;55.80;;;;;;5090425;28;20063;-66
2023/12/20 04:36:53;;;;;;;1.25;0.20;;;16.40;55.70;;;;;;5093714;28;20499;-66
2023/12/20 04:39:19;;;;;;;2.13;0.30;;;16.40;55.70;;;;;;5095134;28;20032;-66
2023/12/20 04:41:47;;;;;;;3.22;0.35;;;16.40;55.70;;;;;;5094912;28;20048;-66
2023/12/20 04:44:13;;;;;;;2.60;0.30;;;16.40;55.70;;;;;;5093009;28;20104;-68
2023/12/20 04:46:39;;;;;;;4.07;0.47;;;16.40;55.70;;;;;;5112957;28;20040;-66
2023/12/20 04:49:10;;;;;;;2.67;0.20;;;16.40;55.70;;;;;;5113982;28;20479;-66
2023/12/20 04:51:36;;;;;;;3.28;0.40;;;16.40;55.70;;;;;;5115221;28;20410;-66
2023/12/20 04:54:02;;;;;;;2.05;0.22;;;16.30;55.60;;;;;;5097296;28;20059;-66
2023/12/20 04:56:28;;;;;;;1.88;0.20;;;16.30;56.40;;;;;;5094957;28;20032;-66
2023/12/20 04:58:54;;;;;;;1.20;0.20;;;16.30;55.60;;;;;;5077238;28;20502;-66
2023/12/20 05:01:20;;;;;;;1.33;0.15;;;16.30;55.70;;;;;;5077176;28;20172;-66
2023/12/20 05:03:46;;;;;;;1.50;0.22;;;16.30;55.60;;;;;;5076868;28;20115;-66
2023/12/20 05:06:17;;;;;;;1.58;0.20;;;16.30;55.60;;;;;;5095130;28;20440;-66
2023/12/20 05:08:43;;;;;;;1.50;0.32;;;16.30;55.60;;;;;;5076802;28;20068;-66
2023/12/20 05:11:09;;;;;;;1.95;0.30;;;16.30;55.60;;;;;;5076140;28;20040;-65
2023/12/20 05:13:35;;;;;;;1.17;0.40;;;16.30;55.60;;;;;;5076090;28;20043;-66
2023/12/20 05:16:00;;;;;;;1.55;0.20;;;16.30;55.60;;;;;;5076595;28;20383;-66
2023/12/20 05:18:26;;;;;;;0.75;0.10;;;16.30;55.70;;;;;;5076534;28;20093;-66
2023/12/20 05:20:52;;;;;;;3.13;0.40;;;16.30;55.60;;;;;;5075890;28;20035;-66
2023/12/20 05:23:17;;;;;;;2.75;0.40;;;16.30;55.60;;;;;;5076262;28;20070;-66
2023/12/20 05:25:43;;;;;;;4.32;0.40;;;16.30;55.60;;;;;;5076013;28;20039;-66
2023/12/20 05:28:09;;;;;;;2.17;0.60;;;16.30;55.60;;;;;;5076177;28;20055;-66
2023/12/20 05:30:34;;;;;;;1.77;0.30;;;16.20;55.60;;;;;;5076186;28;20054;-66
2023/12/20 05:33:00;;;;;;;2.42;0.40;;;16.20;55.60;;;;;;5075764;28;20044;-66
2023/12/20 05:35:26;;;;;;;2.90;0.22;;;16.30;55.60;;;;;;5076138;28;20032;-66
2023/12/20 05:37:51;;;;;;;0.98;0.30;;;16.20;55.60;;;;;;5076038;28;20090;-66
2023/12/20 05:40:17;;;;;;;1.63;0.35;;;16.30;55.70;;;;;;5075634;28;20047;-66
2023/12/20 05:42:43;;;;;;;1.23;0.20;;;16.20;55.60;;;;;;5093848;28;20043;-66
2023/12/20 05:45:09;;;;;;;1.77;0.30;;;16.20;55.60;;;;;;5088232;28;20064;-66
2023/12/20 05:47:35;;;;;;;2.30;0.50;;;16.30;55.60;;;;;;5055325;28;20045;-66
2023/12/20 05:50:00;;;;;;;2.42;0.30;;;16.20;55.60;;;;;;5056152;28;20049;-66
2023/12/20 05:52:26;;;;;;;1.70;0.20;;;16.20;55.60;;;;;;5060772;28;20450;-66
2023/12/20 05:54:52;;;;;;;1.83;0.77;;;16.20;55.50;;;;;;5092375;28;20051;-66
2023/12/20 05:57:18;;;;;;;1.73;0.30;;;16.20;55.50;;;;;;5092697;28;20044;-68
2023/12/20 05:59:43;;;;;;;2.95;0.50;;;16.20;55.60;;;;;;5092368;28;20364;-66
2023/12/20 06:02:09;;;;;;;2.38;0.30;;;16.20;55.60;;;;;;5093632;28;20117;-66
2023/12/20 06:04:34;;;;;;;1.45;0.30;;;16.20;55.60;;;;;;5092760;28;20036;-66
2023/12/20 06:07:00;;;;;;;2.10;0.30;;;16.20;55.50;;;;;;5093533;28;20479;-66
2023/12/20 06:09:27;;;;;;;2.58;0.50;;;16.20;55.60;;;;;;5092046;28;20233;-66
2023/12/20 06:11:53;;;;;;;2.20;0.40;;;16.20;55.60;;;;;;5091951;28;20042;-66
2023/12/20 06:14:19;;;;;;;2.25;0.40;;;16.20;55.60;;;;;;5091777;28;20402;-66
2023/12/20 06:16:45;;;;;;;3.80;0.45;;;16.20;55.60;;;;;;5091862;28;20048;-66
2023/12/20 06:19:11;;;;;;;2.05;0.40;;;16.20;55.60;;;;;;5091867;28;20039;-66
2023/12/20 06:21:36;;;;;;;2.08;0.30;;;16.20;55.50;;;;;;5091580;28;20027;-66
2023/12/20 06:24:02;;;;;;;3.08;0.30;;;16.20;55.50;;;;;;5091771;28;20044;-66
2023/12/20 06:26:28;;;;;;;1.73;0.30;;;16.20;55.50;;;;;;5091710;28;20112;-66
2023/12/20 06:28:54;;;;;;;3.30;0.50;;;16.20;55.50;;;;;;5092777;28;20039;-66
2023/12/20 06:31:19;;;;;;;2.75;0.57;;;16.20;56.20;;;;;;5091989;28;20044;-66
2023/12/20 06:33:45;;;;;;;2.97;0.60;;;16.10;55.50;;;;;;5095134;28;20040;-66
2023/12/20 06:36:13;;;;;;;2.97;0.60;;;16.20;55.50;;;;;;5102483;28;20487;-66
2023/12/20 06:38:38;;;;;;;3.22;0.43;;;16.20;55.50;;;;;;5113606;28;20069;-66
2023/12/20 06:41:04;;;;;;;1.60;0.30;;;16.10;55.40;;;;;;5103860;28;20052;-67
2023/12/20 06:43:30;;;;;;;3.22;0.47;;;16.20;55.50;;;;;;5096787;28;20055;-65
2023/12/20 06:45:56;;;;;;;3.20;0.30;;;16.20;55.40;;;;;;5098226;28;20044;-66
2023/12/20 06:48:22;;;;;;;2.05;1.00;;;16.20;55.50;;;;;;5088280;28;20085;-66
2023/12/20 06:50:48;;;;;;;3.78;0.40;;;16.20;55.50;;;;;;5083029;28;20501;-66
2023/12/20 06:53:13;;;;;;;1.83;0.40;;;16.20;55.50;;;;;;5084208;28;20139;-65
2023/12/20 06:55:39;;;;;;;2.80;0.45;;;16.20;55.50;;;;;;5092217;28;20080;-66
2023/12/20 06:58:05;;;;;;;3.90;0.30;;;16.10;55.40;;;;;;5093345;28;20501;-66
2023/12/20 07:00:32;;;;;;;2.80;0.60;;;16.30;55.50;;;;;;5094403;28;20307;-66
2023/12/20 07:02:57;;;;;;;2.85;0.30;;;17.30;54.00;;;;;;5088242;28;20398;-66
2023/12/20 07:05:23;;;;;;;3.30;0.52;;;18.70;51.40;;;;;;5090416;28;20032;-66
2023/12/20 07:07:48;;;;;;;5.35;1.63;;;20.00;48.70;;;;;;5088853;28;20474;-67
2023/12/20 07:10:17;;;;;;;8.65;0.80;;;21.10;46.10;;;;;;5092354;28;20498;-67
2023/12/20 07:12:43;;;;;;;2.38;0.85;;;22.00;44.40;;;;;;5094878;28;20411;-67
2023/12/20 07:15:09;;;;;;;6.20;1.02;;;22.60;42.80;;;;;;5075194;28;20247;-67
2023/12/20 07:17:35;;;;;;;9.30;1.20;;;23.00;41.60;;;;;;5086923;28;20036;-66
2023/12/20 07:20:03;;;;;;;6.22;0.93;;;23.30;41.00;;;;;;5101723;28;20032;-69
2023/12/20 07:22:31;;;;;;;3.30;1.00;;;23.40;40.60;;;;;;5102848;28;20047;-68
2023/12/20 07:24:58;;;;;;;6.07;1.52;;;23.70;40.00;;;;;;5095525;28;20505;-68
2023/12/20 07:27:24;;;;;;;4.28;0.70;;;23.80;39.60;;;;;;5100467;28;20081;-68
2023/12/20 07:29:50;;;;;;;4.43;0.90;;;23.80;39.30;;;;;;5096307;28;20063;-69
2023/12/20 07:32:15;;;;;;;8.18;1.33;;;23.70;39.10;;;;;;5102753;28;20039;-67
2023/12/20 07:34:41;;;;;;;5.22;1.33;;;23.60;39.00;;;;;;5092190;28;20459;-68
2023/12/20 07:37:07;;;;;;;5.97;1.20;;;23.70;39.00;;;;;;5101540;28;20039;-67
2023/12/20 07:39:32;;;;;;;7.00;1.40;;;23.70;38.90;;;;;;5102224;28;20395;-66
2023/12/20 07:41:58;;;;;;;6.95;1.20;;;23.70;38.80;;;;;;5098557;28;20467;-68
2023/12/20 07:44:23;;;;;;;6.05;1.05;;;23.70;38.80;;;;;;5102984;28;20050;-69
2023/12/20 07:46:49;;;;;;;5.60;1.20;;;23.70;38.90;;;;;;5105699;28;20043;-66
2023/12/20 07:49:15;;;;;;;4.43;1.00;;;23.80;39.00;;;;;;5099528;28;20028;-66
2023/12/20 07:51:41;;;;;;;4.75;1.20;;;23.80;39.00;;;;;;5101809;28;20044;-66
2023/12/20 07:54:07;;;;;;;6.80;1.15;;;23.80;39.10;;;;;;5083779;28;20173;-66
2023/12/20 07:56:33;;;;;;;5.03;1.10;;;23.80;38.90;;;;;;5081404;28;20059;-66
2023/12/20 07:58:59;;;;;;;5.80;1.00;;;23.80;38.90;;;;;;5063787;28;20861;-67
2023/12/20 08:01:24;;;;;;;5.10;1.05;;;23.80;39.00;;;;;;5059686;28;20076;-66
2023/12/20 08:03:50;;;;;;;3.53;0.90;;;23.80;39.10;;;;;;5059764;28;20059;-67
2023/12/20 08:06:19;;;;;;;5.32;0.68;;;23.90;39.10;;;;;;5079747;28;20399;-66
2023/12/20 08:08:45;;;;;;;3.55;0.90;;;24.10;38.80;;;;;;5082477;28;20040;-67
2023/12/20 08:11:11;;;;;;;4.70;0.68;;;24.30;38.30;;;;;;5075742;28;20044;-66
2023/12/20 08:13:36;;;;;;;4.35;0.85;;;24.50;38.20;;;;;;5087822;28;20037;-66
2023/12/20 08:16:03;;;;;;;4.65;0.68;;;24.40;38.00;;;;;;5065031;28;20035;-67
2023/12/20 08:18:29;;;;;;;4.38;0.85;;;24.30;38.10;;;;;;5085297;28;20051;-67
2023/12/20 08:20:54;;;;;;;4.35;0.80;;;24.10;38.30;;;;;;5068636;28;20040;-67
2023/12/20 08:23:20;;;;;;;4.18;0.73;;;23.90;38.60;;;;;;5069179;28;20043;-67
2023/12/20 08:25:49;;;;;;;4.13;0.93;;;23.70;39.00;;;;;;5066519;28;20044;-67
2023/12/20 08:28:15;;;;;;;5.25;0.80;;;23.40;39.30;;;;;;5071952;28;20045;-66
2023/12/20 08:30:41;;;;;;;7.45;0.57;;;23.20;39.80;;;;;;5064947;28;20051;-65
2023/12/20 08:33:12;;;;;;;4.80;1.13;;;22.90;40.40;;;;;;5065922;28;20415;-65
2023/12/20 08:35:38;;;;;;;3.97;1.27;;;22.60;41.10;;;;;;5064639;28;20055;-64
2023/12/20 08:38:04;;;;;;;2.88;0.63;;;22.30;41.80;;;;;;5068329;28;20043;-66
2023/12/20 08:40:33;;;;;;;5.30;0.73;;;22.10;42.30;;;;;;5084382;28;20325;-66
2023/12/20 08:42:59;;;;;;;3.80;0.47;;;22.00;42.60;;;;;;5061559;28;20041;-65
2023/12/20 08:45:27;;;;;;;5.63;0.90;;;22.10;42.80;;;;;;5062332;28;20044;-65
2023/12/20 08:47:53;;;;;;;5.00;1.20;;;22.10;42.80;;;;;;5065011;28;20044;-66
2023/12/20 08:50:18;;;;;;;5.80;0.60;;;22.20;42.70;;;;;;5066443;28;20040;-66
2023/12/20 08:52:44;;;;;;;4.03;1.15;;;22.40;42.40;;;;;;5075632;28;20518;-65
2023/12/20 08:55:10;;;;;;;4.43;0.50;;;22.50;42.20;;;;;;5097373;28;20054;-67
2023/12/20 08:57:36;;;;;;;5.63;0.90;;;22.70;42.00;;;;;;5098196;28;20043;-67
2023/12/20 09:00:03;;;;;;;3.70;0.60;;;22.90;41.70;;;;;;5103915;28;20032;-66
2023/12/20 09:02:28;;;;;;;5.05;1.17;;;23.00;41.20;;;;;;5100198;28;20375;-68
2023/12/20 09:04:55;;;;;;;3.97;0.93;;;23.20;40.90;;;;;;5098912;28;20063;-66
2023/12/20 09:07:30;;;;;;;4.30;0.65;;;23.50;40.50;;;;;;5102629;28;20063;-67
2023/12/20 09:09:56;;;;;;;2.33;0.50;;;24.10;40.00;;;;;;5100980;28;20430;-68
2023/12/20 09:12:22;;;;;;;5.57;0.82;;;24.80;38.80;;;;;;5102502;28;20058;-67
2023/12/20 09:14:49;;;;;;;2.45;0.60;;;25.00;38.10;;;;;;5103986;28;20035;-67
2023/12/20 09:17:16;;;;;;;5.82;0.70;;;25.00;38.00;;;;;;5094145;28;20662;-67
2023/12/20 09:19:44;;;;;;;4.15;0.60;;;25.00;38.20;;;;;;5092612;28;20075;-66
2023/12/20 09:22:10;;;;;;;5.63;0.90;;;25.20;38.20;;;;;;5100069;28;20131;-69
2023/12/20 09:24:35;;;;;;;3.53;0.82;;;25.50;37.90;;;;;;5101979;28;20126;-71
2023/12/20 09:27:01;;;;;;;7.15;1.10;;;26.00;37.30;;;;;;5103373;28;20031;-68
2023/12/20 09:29:27;;;;;;;4.13;0.50;;;26.30;36.50;;;;;;5102913;28;20062;-67
2023/12/20 09:31:52;;;;;;;4.85;0.90;;;26.60;35.90;;;;;;5103057;27;20503;-68
2023/12/20 09:34:18;;;;;;;3.85;0.77;;;26.90;35.40;;;;;;5090348;28;20040;-69
2023/12/20 09:36:47;;;;;;;3.92;0.85;;;27.00;34.80;;;;;;5080800;28;20044;-67
2023/12/20 09:39:14;;;;;;;8.88;1.27;;;27.00;34.60;;;;;;5089198;28;20481;-66
2023/12/20 09:41:46;;;;;;;4.85;1.15;;;26.90;34.80;;;;;;5095040;28;20276;-66
2023/12/20 09:44:20;;;;;;;7.88;1.02;;;26.90;35.20;;;;;;5096361;28;20288;-67
2023/12/20 09:46:50;;;;;;;9.23;1.27;;;26.80;35.30;;;;;;5090830;28;20048;-67
2023/12/20 09:49:18;;;;;;;6.93;1.42;;;26.60;35.50;;;;;;5095668;28;20055;-67
2023/12/20 09:51:46;;;;;;;5.65;0.85;;;26.40;36.20;;;;;;5092191;28;20068;-67
2023/12/20 09:54:15;;;;;;;7.25;1.75;;;26.10;36.80;;;;;;5092647;28;20046;-65
2023/12/20 09:56:43;;;;;;;6.60;0.93;;;25.80;37.20;;;;;;5100055;28;20078;-64
2023/12/20 09:59:09;;;;;;;8.40;1.55;;;25.50;37.70;;;;;;5101139;28;20047;-67
2023/12/20 10:01:39;;;;;;;6.90;0.88;;;25.10;38.10;;;;;;5098976;28;20036;-68
2023/12/20 10:04:08;;;;;;;4.13;0.70;;;24.90;38.40;;;;;;5095159;28;20349;-66
2023/12/20 10:06:36;;;;;;;5.03;1.00;;;24.90;38.70;;;;;;5096790;28;20093;-65
2023/12/20 10:09:02;;;;;;;6.68;1.10;;;25.20;38.50;;;;;;5098791;28;20146;-64
2023/12/20 10:11:28;;;;;;;5.78;0.82;;;25.60;38.20;;;;;;5095931;28;20047;-67
2023/12/20 10:14:01;;;;;;;6.28;1.42;;;26.10;37.80;;;;;;5101649;28;20079;-65
2023/12/20 10:16:27;;;;;;;9.98;1.17;;;26.60;37.30;;;;;;5097086;28;20061;-67
2023/12/20 10:18:53;;;;;;;8.32;1.05;;;27.00;36.90;;;;;;5095578;28;20039;-63
2023/12/20 10:21:19;;;;;;;6.05;0.57;;;27.30;36.60;;;;;;5098870;28;20036;-62
2023/12/20 10:23:46;;;;;;;5.75;1.38;;;27.60;36.00;;;;;;5100459;28;20047;-67
2023/12/20 10:26:21;;;;;;;3.22;0.68;;;27.70;35.90;;;;;;5096823;28;20035;-66
2023/12/20 10:28:49;;;;;;;7.70;0.50;;;27.80;36.10;;;;;;5098730;28;20063;-65
2023/12/20 10:31:33;;;;;;;9.93;0.77;;;28.00;35.70;;;;;;5089315;28;20470;-70
2023/12/20 10:33:59;;;;;;;7.90;0.73;;;28.30;35.90;;;;;;5089112;28;20040;-66
2023/12/20 10:36:27;;;;;;;5.63;0.68;;;28.40;35.50;;;;;;5083414;28;20047;-66
2023/12/20 10:38:54;;;;;;;4.68;0.60;;;28.50;35.50;;;;;;5081432;28;20113;-68
2023/12/20 10:41:27;;;;;;;3.28;0.50;;;28.50;35.20;;;;;;5097584;28;20043;-70
2023/12/20 10:43:57;;;;;;;3.75;0.80;;;28.40;35.00;;;;;;5086121;28;20050;-68
2023/12/20 10:46:26;;;;;;;5.60;0.65;;;28.20;34.70;;;;;;5092891;28;20048;-69
2023/12/20 10:48:53;;;;;;;5.20;0.50;;;28.00;35.00;;;;;;5093904;28;20441;-66
2023/12/20 10:51:20;;;;;;;5.18;1.02;;;27.80;35.30;;;;;;5088394;28;20043;-64
2023/12/20 10:53:48;;;;;;;4.32;0.40;;;27.80;35.50;;;;;;5076694;28;20059;-66
2023/12/20 10:56:18;;;;;;;2.92;0.32;;;27.60;35.30;;;;;;5071775;28;20044;-66
2023/12/20 10:58:44;;;;;;;3.70;0.63;;;27.60;35.60;;;;;;5067160;28;20036;-67
2023/12/20 11:01:13;;;;;;;4.85;0.57;;;27.40;35.60;;;;;;5046415;28;20111;-65
2023/12/20 11:03:51;;;;;;;2.55;0.40;;;27.30;35.90;;;;;;5051555;28;20056;-67
2023/12/20 11:17:16;;;;;;;7.82;0.55;;;27.10;36.20;;;;;;5112320;27;20179;-69
2023/12/20 11:20:04;;;;;;;2.65;0.25;;;26.50;36.00;;;;;;5089282;28;20109;-65
2023/12/20 11:22:31;;;;;;;1.90;0.50;;;26.20;36.30;;;;;;5089572;28;20039;-69
2023/12/20 11:25:12;;;;;;;4.65;0.63;;;26.30;36.00;;;;;;5089913;28;20036;-69
2023/12/20 11:27:43;;;;;;;3.63;0.30;;;26.30;35.90;;;;;;5092661;28;20035;-67
2023/12/20 11:30:09;;;;;;;3.15;0.30;;;26.50;36.00;;;;;;5088388;28;20240;-67
2023/12/20 11:32:40;;;;;;;4.55;0.30;;;26.90;35.60;;;;;;5089805;28;20112;-70
2023/12/20 11:37:48;;;;;;;4.60;0.30;;;27.40;35.20;;;;;;5086016;27;21105;-71
2023/12/20 11:40:16;;;;;;;2.88;0.40;;;27.80;34.20;;;;;;5093019;28;20086;-71
2023/12/20 11:42:45;;;;;;;2.97;0.30;;;27.70;33.50;;;;;;5085912;28;20036;-71
2023/12/20 11:47:54;;;;;;;2.15;0.30;;;27.60;33.90;;;;;;5125124;27;20398;-68
2023/12/20 11:50:21;;;;;;;6.22;0.80;;;27.50;33.10;;;;;;5092821;28;20063;-69
2023/12/20 11:52:48;;;;;;;6.80;0.85;;;27.20;33.70;;;;;;5091886;28;20051;-67
2023/12/20 11:55:14;;;;;;;5.63;0.70;;;27.30;34.10;;;;;;5091755;28;20043;-67
2023/12/20 11:57:42;;;;;;;6.05;0.60;;;27.50;34.10;;;;;;5089583;28;20047;-68
2023/12/20 12:00:08;;;;;;;4.65;0.50;;;27.70;34.10;;;;;;5108551;28;20123;-67
2023/12/20 12:02:34;;;;;;;5.15;0.63;;;27.70;33.90;;;;;;5105609;28;20118;-67
2023/12/20 12:05:05;;;;;;;1.77;0.20;;;27.70;33.90;;;;;;5085869;28;20451;-68
2023/12/20 12:07:31;;;;;;;1.52;0.20;;;27.40;33.70;;;;;;5103630;28;20079;-68
2023/12/20 12:10:00;;;;;;;4.25;0.30;;;27.30;33.60;;;;;;5108784;28;20422;-68
2023/12/20 12:12:27;;;;;;;2.15;0.30;;;27.20;33.60;;;;;;5096829;28;20066;-68
2023/12/20 12:14:57;;;;;;;2.38;0.20;;;27.10;33.60;;;;;;5098265;28;20400;-68
2023/12/20 12:17:23;;;;;;;1.38;0.20;;;27.00;33.60;;;;;;5110795;28;20035;-67
2023/12/20 12:19:49;;;;;;;2.33;0.22;;;26.80;33.80;;;;;;5111824;28;20467;-67
2023/12/20 12:22:16;;;;;;;2.40;0.43;;;26.80;34.10;;;;;;5096433;28;20133;-67
2023/12/20 12:24:44;;;;;;;1.17;0.20;;;26.90;34.30;;;;;;5094479;28;20090;-67
2023/12/20 12:27:11;;;;;;;2.55;0.63;;;27.00;34.10;;;;;;5115333;28;20075;-67
2023/12/20 12:29:38;;;;;;;1.95;0.20;;;27.20;34.10;;;;;;5116208;28;20070;-67
2023/12/20 12:32:07;;;;;;;3.80;0.20;;;27.30;33.80;;;;;;5096279;28;20382;-68
2023/12/20 12:34:34;;;;;;;1.30;0.20;;;27.50;33.70;;;;;;5115557;28;20042;-67
2023/12/20 12:37:00;;;;;;;1.45;0.20;;;27.70;33.50;;;;;;5113008;28;20126;-70
2023/12/20 12:39:26;;;;;;;4.60;0.30;;;27.70;33.10;;;;;;5115717;28;20111;-67
2023/12/20 12:41:52;;;;;;;0.90;0.10;;;27.50;32.90;;;;;;5102382;28;20039;-69
2023/12/20 12:44:18;;;;;;;7.07;0.47;;;27.20;33.20;;;;;;5108073;28;20032;-68
2023/12/20 12:46:46;;;;;;;2.50;0.20;;;26.80;33.60;;;;;;5122943;27;20731;-68
2023/12/20 12:49:12;;;;;;;0.93;0.10;;;26.40;34.10;;;;;;5087198;28;20613;-68
2023/12/20 12:51:37;;;;;;;2.97;0.20;;;26.20;34.50;;;;;;5087041;28;20047;-69
2023/12/20 12:54:03;;;;;;;1.95;0.20;;;26.20;34.60;;;;;;5087431;28;20038;-68
2023/12/20 12:56:29;;;;;;;0.70;0.10;;;26.20;34.70;;;;;;5110455;28;20482;-68
2023/12/20 12:58:55;;;;;;;2.60;0.10;;;26.00;34.80;;;;;;5084262;28;20044;-69
2023/12/20 13:01:21;;;;;;;2.45;0.30;;;25.90;35.10;;;;;;5080904;28;20625;-67